sensor_id;sensor_type;location;lat;lon;timestamp;pressure;altitude;pressure_sealevel;temperature;humidity
56831;BME280;42713;42.676;23.352;2023-02-11T00:01:12;96434.09;;;-2.27;55.31
56831;BME280;42713;42.676;23.352;2023-02-11T00:03:40;96442.38;;;-2.35;55.15
56831;BME280;42713;42.676;23.352;2023-02-11T00:06:07;96442.94;;;-2.43;55.33
56831;BME280;42713;42.676;23.352;2023-02-11T00:08:36;96439.22;;;-2.39;55.19
56831;BME280;42713;42.676;23.352;2023-02-11T00:11:02;96433.38;;;-2.41;55.02
56831;BME280;42713;42.676;23.352;2023-02-11T00:13:28;96428.97;;;-2.39;55.44
56831;BME280;42713;42.676;23.352;2023-02-11T00:15:54;96437.47;;;-2.50;55.46
56831;BME280;42713;42.676;23.352;2023-02-11T00:18:19;96435.88;;;-2.62;55.69
56831;BME280;42713;42.676;23.352;2023-02-11T00:20:45;96449.63;;;-2.63;55.51
56831;BME280;42713;42.676;23.352;2023-02-11T00:23:11;96433.66;;;-2.55;55.54
56831;BME280;42713;42.676;23.352;2023-02-11T00:25:40;96437.59;;;-2.51;55.74
56831;BME280;42713;42.676;23.352;2023-02-11T00:28:07;96429.41;;;-2.45;55.27
56831;BME280;42713;42.676;23.352;2023-02-11T00:30:32;96434.78;;;-2.37;55.19
56831;BME280;42713;42.676;23.352;2023-02-11T00:32:58;96433.97;;;-2.37;54.77
56831;BME280;42713;42.676;23.352;2023-02-11T00:35:23;96427.47;;;-2.53;55.04
56831;BME280;42713;42.676;23.352;2023-02-11T00:37:49;96430.59;;;-2.60;55.35
56831;BME280;42713;42.676;23.352;2023-02-11T00:40:14;96428.63;;;-2.57;55.21
56831;BME280;42713;42.676;23.352;2023-02-11T00:42:41;96422.22;;;-2.62;55.22
56831;BME280;42713;42.676;23.352;2023-02-11T00:45:07;96432.94;;;-2.69;55.24
56831;BME280;42713;42.676;23.352;2023-02-11T00:47:34;96424.78;;;-2.62;55.27
56831;BME280;42713;42.676;23.352;2023-02-11T00:50:00;96421.41;;;-2.52;54.78
56831;BME280;42713;42.676;23.352;2023-02-11T00:52:26;96419.53;;;-2.61;54.41
56831;BME280;42713;42.676;23.352;2023-02-11T00:54:51;96427.47;;;-2.64;54.64
56831;BME280;42713;42.676;23.352;2023-02-11T00:57:17;96421.06;;;-2.70;54.58
56831;BME280;42713;42.676;23.352;2023-02-11T00:59:42;96416.97;;;-2.72;54.69
56831;BME280;42713;42.676;23.352;2023-02-11T01:02:08;96416.97;;;-2.72;54.71
56831;BME280;42713;42.676;23.352;2023-02-11T01:04:33;96417.91;;;-2.85;55.10
56831;BME280;42713;42.676;23.352;2023-02-11T01:06:59;96417.44;;;-2.78;54.67
56831;BME280;42713;42.676;23.352;2023-02-11T01:09:24;96413.81;;;-2.87;55.37
56831;BME280;42713;42.676;23.352;2023-02-11T01:11:50;96413.59;;;-2.84;54.82
56831;BME280;42713;42.676;23.352;2023-02-11T01:14:15;96413.94;;;-2.89;55.34
56831;BME280;42713;42.676;23.352;2023-02-11T01:16:41;96419.41;;;-2.82;55.05
56831;BME280;42713;42.676;23.352;2023-02-11T01:19:07;96415.56;;;-2.76;54.99
56831;BME280;42713;42.676;23.352;2023-02-11T01:21:32;96414.53;;;-2.85;54.66
56831;BME280;42713;42.676;23.352;2023-02-11T01:23:58;96404.72;;;-2.91;54.57
56831;BME280;42713;42.676;23.352;2023-02-11T01:26:23;96407.41;;;-3.04;54.99
56831;BME280;42713;42.676;23.352;2023-02-11T01:28:49;96406.34;;;-3.02;55.08
56831;BME280;42713;42.676;23.352;2023-02-11T01:31:14;96410.81;;;-3.04;55.50
56831;BME280;42713;42.676;23.352;2023-02-11T01:33:40;96406.59;;;-3.05;55.46
56831;BME280;42713;42.676;23.352;2023-02-11T01:36:06;96404.03;;;-2.93;55.34
56831;BME280;42713;42.676;23.352;2023-02-11T01:38:32;96401.72;;;-2.85;54.73
56831;BME280;42713;42.676;23.352;2023-02-11T01:41:01;96412.41;;;-2.91;55.20
56831;BME280;42713;42.676;23.352;2023-02-11T01:43:29;96402.66;;;-2.86;55.22
56831;BME280;42713;42.676;23.352;2023-02-11T01:48:43;96400.44;;;-2.79;54.98
56831;BME280;42713;42.676;23.352;2023-02-11T01:51:18;96406.94;;;-2.75;54.71
56831;BME280;42713;42.676;23.352;2023-02-11T01:53:46;96396.22;;;-2.92;55.15
56831;BME280;42713;42.676;23.352;2023-02-11T01:56:32;96403.22;;;-2.94;54.78
56831;BME280;42713;42.676;23.352;2023-02-11T01:59:27;96401.34;;;-2.92;55.29
56831;BME280;42713;42.676;23.352;2023-02-11T02:02:01;96408.13;;;-2.91;54.70
56831;BME280;42713;42.676;23.352;2023-02-11T02:04:34;96398.09;;;-2.94;54.73
56831;BME280;42713;42.676;23.352;2023-02-11T02:07:07;96396.69;;;-2.98;54.94
56831;BME280;42713;42.676;23.352;2023-02-11T02:09:41;96399.72;;;-2.93;55.15
56831;BME280;42713;42.676;23.352;2023-02-11T02:12:08;96400.88;;;-2.97;55.47
56831;BME280;42713;42.676;23.352;2023-02-11T02:14:37;96399.38;;;-2.88;54.58
56831;BME280;42713;42.676;23.352;2023-02-11T02:17:03;96390.16;;;-3.02;54.55
56831;BME280;42713;42.676;23.352;2023-02-11T02:20:59;96396.94;;;-3.01;55.63
56831;BME280;42713;42.676;23.352;2023-02-11T02:23:01;96391.31;;;-3.06;54.70
56831;BME280;42713;42.676;23.352;2023-02-11T02:36:57;96390.28;;;-3.15;54.78
56831;BME280;42713;42.676;23.352;2023-02-11T02:39:30;96386.88;;;-3.16;55.16
56831;BME280;42713;42.676;23.352;2023-02-11T02:41:57;96387.00;;;-3.17;54.54
56831;BME280;42713;42.676;23.352;2023-02-11T02:44:23;96394.13;;;-3.21;54.68
56831;BME280;42713;42.676;23.352;2023-02-11T02:46:49;96389.22;;;-3.24;55.31
56831;BME280;42713;42.676;23.352;2023-02-11T02:49:15;96388.16;;;-3.21;54.91
56831;BME280;42713;42.676;23.352;2023-02-11T03:02:48;96403.56;;;-3.57;55.84
56831;BME280;42713;42.676;23.352;2023-02-11T03:10:44;96401.38;;;-3.50;55.93
56831;BME280;42713;42.676;23.352;2023-02-11T03:13:13;96395.47;;;-3.51;55.85
56831;BME280;42713;42.676;23.352;2023-02-11T03:15:46;96400.00;;;-3.54;56.05
56831;BME280;42713;42.676;23.352;2023-02-11T03:18:20;96397.31;;;-3.53;55.92
56831;BME280;42713;42.676;23.352;2023-02-11T03:20:48;96398.25;;;-3.54;55.57
56831;BME280;42713;42.676;23.352;2023-02-11T03:23:18;96401.84;;;-3.56;56.55
56831;BME280;42713;42.676;23.352;2023-02-11T03:25:57;96400.91;;;-3.55;56.64
56831;BME280;42713;42.676;23.352;2023-02-11T03:28:31;96391.97;;;-3.50;55.75
56831;BME280;42713;42.676;23.352;2023-02-11T03:36:50;96391.13;;;-3.50;55.65
56831;BME280;42713;42.676;23.352;2023-02-11T03:39:23;96389.72;;;-3.66;56.16
56831;BME280;42713;42.676;23.352;2023-02-11T03:41:53;96389.38;;;-3.61;56.04
56831;BME280;42713;42.676;23.352;2023-02-11T03:44:22;96391.47;;;-3.55;56.33
56831;BME280;42713;42.676;23.352;2023-02-11T03:46:50;96389.84;;;-3.56;56.59
56831;BME280;42713;42.676;23.352;2023-02-11T03:49:19;96390.91;;;-3.47;56.38
56831;BME280;42713;42.676;23.352;2023-02-11T03:51:47;96389.53;;;-3.40;55.37
56831;BME280;42713;42.676;23.352;2023-02-11T03:54:18;96389.78;;;-3.43;55.15
56831;BME280;42713;42.676;23.352;2023-02-11T03:56:51;96381.06;;;-3.29;55.51
56831;BME280;42713;42.676;23.352;2023-02-11T03:59:17;96396.66;;;-3.32;55.39
56831;BME280;42713;42.676;23.352;2023-02-11T04:01:42;96393.94;;;-3.42;55.46
56831;BME280;42713;42.676;23.352;2023-02-11T04:04:08;96394.78;;;-3.41;55.89
56831;BME280;42713;42.676;23.352;2023-02-11T04:06:33;96392.34;;;-3.43;54.95
56831;BME280;42713;42.676;23.352;2023-02-11T04:08:59;96398.94;;;-3.52;54.94
56831;BME280;42713;42.676;23.352;2023-02-11T04:11:24;96388.53;;;-3.62;55.46
56831;BME280;42713;42.676;23.352;2023-02-11T04:13:50;96393.41;;;-3.70;56.22
56831;BME280;42713;42.676;23.352;2023-02-11T04:16:15;96393.06;;;-3.65;56.37
56831;BME280;42713;42.676;23.352;2023-02-11T04:18:40;96387.00;;;-3.76;56.37
56831;BME280;42713;42.676;23.352;2023-02-11T04:21:06;96397.72;;;-3.70;57.58
56831;BME280;42713;42.676;23.352;2023-02-11T04:23:32;96395.19;;;-3.70;56.59
56831;BME280;42713;42.676;23.352;2023-02-11T04:25:57;96401.25;;;-3.60;57.30
56831;BME280;42713;42.676;23.352;2023-02-11T04:28:23;96389.34;;;-3.72;56.11
56831;BME280;42713;42.676;23.352;2023-02-11T04:30:49;96388.88;;;-3.66;56.38
56831;BME280;42713;42.676;23.352;2023-02-11T04:33:16;96394.00;;;-3.66;56.59
56831;BME280;42713;42.676;23.352;2023-02-11T04:35:42;96390.53;;;-3.65;56.88
56831;BME280;42713;42.676;23.352;2023-02-11T04:38:07;96390.78;;;-3.57;56.73
56831;BME280;42713;42.676;23.352;2023-02-11T04:40:33;96378.47;;;-3.52;56.67
56831;BME280;42713;42.676;23.352;2023-02-11T04:42:58;96380.34;;;-3.42;57.12
56831;BME280;42713;42.676;23.352;2023-02-11T04:45:24;96378.91;;;-3.47;56.82
56831;BME280;42713;42.676;23.352;2023-02-11T04:47:49;96386.38;;;-3.44;57.88
56831;BME280;42713;42.676;23.352;2023-02-11T04:50:15;96384.03;;;-3.47;57.78
56831;BME280;42713;42.676;23.352;2023-02-11T04:52:40;96390.09;;;-3.48;57.24
56831;BME280;42713;42.676;23.352;2023-02-11T04:55:06;96382.53;;;-3.49;57.40
56831;BME280;42713;42.676;23.352;2023-02-11T04:57:32;96376.81;;;-3.53;57.87
56831;BME280;42713;42.676;23.352;2023-02-11T04:59:57;96384.97;;;-3.59;57.22
56831;BME280;42713;42.676;23.352;2023-02-11T05:02:23;96376.19;;;-3.68;57.92
56831;BME280;42713;42.676;23.352;2023-02-11T05:04:48;96379.34;;;-3.64;58.21
56831;BME280;42713;42.676;23.352;2023-02-11T05:07:13;96378.16;;;-3.71;57.40
56831;BME280;42713;42.676;23.352;2023-02-11T05:09:39;96377.00;;;-3.79;57.57
56831;BME280;42713;42.676;23.352;2023-02-11T05:12:04;96373.59;;;-3.79;58.20
56831;BME280;42713;42.676;23.352;2023-02-11T05:14:30;96374.88;;;-3.85;58.05
56831;BME280;42713;42.676;23.352;2023-02-11T05:16:56;96373.84;;;-3.82;58.14
56831;BME280;42713;42.676;23.352;2023-02-11T05:19:22;96373.34;;;-3.87;58.21
56831;BME280;42713;42.676;23.352;2023-02-11T05:21:47;96371.94;;;-3.92;58.48
56831;BME280;42713;42.676;23.352;2023-02-11T05:24:13;96370.53;;;-3.96;58.29
56831;BME280;42713;42.676;23.352;2023-02-11T05:26:38;96381.09;;;-4.00;58.36
56831;BME280;42713;42.676;23.352;2023-02-11T05:29:04;96377.84;;;-4.02;58.89
56831;BME280;42713;42.676;23.352;2023-02-11T05:31:29;96367.97;;;-3.96;58.94
56831;BME280;42713;42.676;23.352;2023-02-11T05:33:55;96362.47;;;-4.02;58.27
56831;BME280;42713;42.676;23.352;2023-02-11T05:36:20;96367.81;;;-4.06;58.31
56831;BME280;42713;42.676;23.352;2023-02-11T05:38:45;96362.94;;;-4.09;58.24
56831;BME280;42713;42.676;23.352;2023-02-11T05:41:11;96375.94;;;-4.12;58.72
56831;BME280;42713;42.676;23.352;2023-02-11T05:43:36;96363.59;;;-4.18;58.60
56831;BME280;42713;42.676;23.352;2023-02-11T05:46:03;96373.31;;;-4.23;59.62
56831;BME280;42713;42.676;23.352;2023-02-11T05:48:29;96369.63;;;-4.19;59.01
56831;BME280;42713;42.676;23.352;2023-02-11T05:50:55;96374.41;;;-4.14;58.97
56831;BME280;42713;42.676;23.352;2023-02-11T05:53:20;96379.63;;;-4.16;59.98
56831;BME280;42713;42.676;23.352;2023-02-11T05:55:45;96384.75;;;-4.16;58.87
56831;BME280;42713;42.676;23.352;2023-02-11T05:58:11;96379.84;;;-4.19;59.34
56831;BME280;42713;42.676;23.352;2023-02-11T06:00:37;96383.34;;;-4.20;59.08
56831;BME280;42713;42.676;23.352;2023-02-11T06:03:02;96386.22;;;-4.25;59.96
56831;BME280;42713;42.676;23.352;2023-02-11T06:05:29;96386.94;;;-4.23;59.00
56831;BME280;42713;42.676;23.352;2023-02-11T06:07:54;96385.72;;;-4.30;59.87
56831;BME280;42713;42.676;23.352;2023-02-11T06:10:20;96383.16;;;-4.30;59.81
56831;BME280;42713;42.676;23.352;2023-02-11T06:12:47;96392.97;;;-4.24;59.07
56831;BME280;42713;42.676;23.352;2023-02-11T06:15:13;96385.06;;;-4.20;59.91
56831;BME280;42713;42.676;23.352;2023-02-11T06:17:38;96386.50;;;-4.16;60.21
56831;BME280;42713;42.676;23.352;2023-02-11T06:20:06;96394.16;;;-4.16;59.19
56831;BME280;42713;42.676;23.352;2023-02-11T06:22:32;96382.31;;;-4.17;59.39
56831;BME280;42713;42.676;23.352;2023-02-11T06:24:58;96387.28;;;-4.16;59.12
56831;BME280;42713;42.676;23.352;2023-02-11T06:27:24;96391.81;;;-4.19;59.28
56831;BME280;42713;42.676;23.352;2023-02-11T06:29:50;96394.97;;;-4.16;59.15
56831;BME280;42713;42.676;23.352;2023-02-11T06:32:17;96394.56;;;-4.10;59.39
56831;BME280;42713;42.676;23.352;2023-02-11T06:34:42;96395.88;;;-4.04;59.23
56831;BME280;42713;42.676;23.352;2023-02-11T06:37:08;96395.53;;;-3.99;58.97
56831;BME280;42713;42.676;23.352;2023-02-11T06:39:33;96392.66;;;-3.95;58.47
56831;BME280;42713;42.676;23.352;2023-02-11T06:41:59;96384.13;;;-3.95;58.37
56831;BME280;42713;42.676;23.352;2023-02-11T06:44:24;96392.47;;;-4.04;58.55
56831;BME280;42713;42.676;23.352;2023-02-11T06:46:50;96397.38;;;-4.01;58.22
56831;BME280;42713;42.676;23.352;2023-02-11T06:49:15;96403.28;;;-4.12;58.52
56831;BME280;42713;42.676;23.352;2023-02-11T06:51:41;96397.59;;;-4.29;58.74
56831;BME280;42713;42.676;23.352;2023-02-11T06:54:06;96396.66;;;-4.28;58.97
56831;BME280;42713;42.676;23.352;2023-02-11T06:56:32;96406.69;;;-4.25;59.12
56831;BME280;42713;42.676;23.352;2023-02-11T06:58:58;96394.09;;;-4.28;59.28
56831;BME280;42713;42.676;23.352;2023-02-11T07:01:25;96405.50;;;-4.32;59.61
56831;BME280;42713;42.676;23.352;2023-02-11T07:03:50;96402.03;;;-4.44;59.95
56831;BME280;42713;42.676;23.352;2023-02-11T07:06:19;96397.50;;;-4.27;59.83
56831;BME280;42713;42.676;23.352;2023-02-11T07:08:46;96399.72;;;-4.23;59.92
56831;BME280;42713;42.676;23.352;2023-02-11T07:11:20;96396.25;;;-4.22;59.40
56831;BME280;42713;42.676;23.352;2023-02-11T07:13:48;96395.94;;;-4.17;59.60
56831;BME280;42713;42.676;23.352;2023-02-11T07:16:16;96397.13;;;-4.10;58.98
56831;BME280;42713;42.676;23.352;2023-02-11T07:18:42;96389.84;;;-4.16;59.03
56831;BME280;42713;42.676;23.352;2023-02-11T07:21:10;96390.09;;;-4.19;58.72
56831;BME280;42713;42.676;23.352;2023-02-11T07:23:36;96390.31;;;-4.22;59.30
56831;BME280;42713;42.676;23.352;2023-02-11T07:26:07;96380.44;;;-4.40;60.33
56831;BME280;42713;42.676;23.352;2023-02-11T07:28:34;96382.34;;;-4.30;60.23
56831;BME280;42713;42.676;23.352;2023-02-11T07:31:15;96377.34;;;-4.32;60.25
56831;BME280;42713;42.676;23.352;2023-02-11T07:33:42;96372.28;;;-4.20;59.89
56831;BME280;42713;42.676;23.352;2023-02-11T07:36:09;96372.72;;;-4.27;60.20
56831;BME280;42713;42.676;23.352;2023-02-11T07:38:35;96376.00;;;-4.25;60.22
56831;BME280;42713;42.676;23.352;2023-02-11T07:41:06;96369.19;;;-4.13;60.36
56831;BME280;42713;42.676;23.352;2023-02-11T07:43:32;96372.38;;;-3.98;60.12
56831;BME280;42713;42.676;23.352;2023-02-11T07:46:01;96355.88;;;-3.94;59.78
56831;BME280;42713;42.676;23.352;2023-02-11T07:48:27;96366.94;;;-3.93;60.01
56831;BME280;42713;42.676;23.352;2023-02-11T07:50:52;96369.28;;;-3.90;59.69
56831;BME280;42713;42.676;23.352;2023-02-11T07:53:17;96365.19;;;-3.93;59.89
56831;BME280;42713;42.676;23.352;2023-02-11T07:55:43;96358.53;;;-3.95;59.80
56831;BME280;42713;42.676;23.352;2023-02-11T07:58:11;96368.09;;;-3.97;59.60
56831;BME280;42713;42.676;23.352;2023-02-11T08:00:36;96360.88;;;-3.92;59.51
56831;BME280;42713;42.676;23.352;2023-02-11T08:03:03;96360.16;;;-3.94;60.44
56831;BME280;42713;42.676;23.352;2023-02-11T08:05:29;96363.66;;;-3.95;59.69
56831;BME280;42713;42.676;23.352;2023-02-11T08:07:55;96347.78;;;-3.76;60.03
56831;BME280;42713;42.676;23.352;2023-02-11T08:10:20;96359.94;;;-3.55;60.44
56831;BME280;42713;42.676;23.352;2023-02-11T08:12:46;96367.66;;;-3.44;58.75
56831;BME280;42713;42.676;23.352;2023-02-11T08:15:12;96363.53;;;-3.47;58.82
56831;BME280;42713;42.676;23.352;2023-02-11T08:17:37;96352.16;;;-3.42;58.53
56831;BME280;42713;42.676;23.352;2023-02-11T08:20:04;96348.66;;;-3.41;59.09
56831;BME280;42713;42.676;23.352;2023-02-11T08:22:31;96352.97;;;-3.42;58.65
56831;BME280;42713;42.676;23.352;2023-02-11T08:24:57;96352.28;;;-3.44;58.67
56831;BME280;42713;42.676;23.352;2023-02-11T08:27:24;96348.91;;;-3.33;58.37
56831;BME280;42713;42.676;23.352;2023-02-11T08:29:51;96361.50;;;-3.30;58.07
56831;BME280;42713;42.676;23.352;2023-02-11T08:32:17;96347.75;;;-3.29;58.24
56831;BME280;42713;42.676;23.352;2023-02-11T08:34:43;96350.41;;;-3.19;57.70
56831;BME280;42713;42.676;23.352;2023-02-11T08:37:09;96356.13;;;-3.04;58.31
56831;BME280;42713;42.676;23.352;2023-02-11T08:39:34;96356.97;;;-3.04;57.63
56831;BME280;42713;42.676;23.352;2023-02-11T08:41:59;96354.84;;;-2.99;58.00
56831;BME280;42713;42.676;23.352;2023-02-11T08:44:25;96352.66;;;-2.92;57.98
56831;BME280;42713;42.676;23.352;2023-02-11T08:46:51;96353.09;;;-2.98;57.60
56831;BME280;42713;42.676;23.352;2023-02-11T08:49:17;96354.97;;;-2.89;57.98
56831;BME280;42713;42.676;23.352;2023-02-11T08:51:43;96348.19;;;-2.78;57.29
56831;BME280;42713;42.676;23.352;2023-02-11T08:54:09;96350.53;;;-2.75;56.73
56831;BME280;42713;42.676;23.352;2023-02-11T08:56:35;96348.38;;;-2.59;56.81
56831;BME280;42713;42.676;23.352;2023-02-11T08:59:01;96349.66;;;-2.53;56.49
56831;BME280;42713;42.676;23.352;2023-02-11T09:01:29;96357.50;;;-2.55;56.44
56831;BME280;42713;42.676;23.352;2023-02-11T09:03:56;96348.03;;;-2.54;56.26
56831;BME280;42713;42.676;23.352;2023-02-11T09:06:23;96349.00;;;-2.55;56.77
56831;BME280;42713;42.676;23.352;2023-02-11T09:08:51;96344.09;;;-2.58;56.74
56831;BME280;42713;42.676;23.352;2023-02-11T09:11:19;96342.09;;;-2.55;57.07
56831;BME280;42713;42.676;23.352;2023-02-11T09:13:46;96339.31;;;-2.52;57.48
56831;BME280;42713;42.676;23.352;2023-02-11T09:16:18;96334.44;;;-2.33;57.78
56831;BME280;42713;42.676;23.352;2023-02-11T09:18:44;96341.06;;;-2.20;57.41
56831;BME280;42713;42.676;23.352;2023-02-11T09:21:11;96342.28;;;-2.03;60.30
56831;BME280;42713;42.676;23.352;2023-02-11T09:23:37;96325.06;;;-1.91;57.05
56831;BME280;42713;42.676;23.352;2023-02-11T09:26:08;96333.03;;;-1.73;56.64
56831;BME280;42713;42.676;23.352;2023-02-11T09:28:34;96328.63;;;-1.61;54.93
56831;BME280;42713;42.676;23.352;2023-02-11T09:31:08;96327.13;;;-1.63;54.54
56831;BME280;42713;42.676;23.352;2023-02-11T09:33:34;96326.06;;;-1.61;53.30
56831;BME280;42713;42.676;23.352;2023-02-11T09:36:04;96315.22;;;-1.64;53.28
56831;BME280;42713;42.676;23.352;2023-02-11T09:38:30;96310.53;;;-1.59;53.71
56831;BME280;42713;42.676;23.352;2023-02-11T09:40:56;96321.69;;;-1.49;53.66
56831;BME280;42713;42.676;23.352;2023-02-11T09:43:40;96315.09;;;-1.42;52.62
56831;BME280;42713;42.676;23.352;2023-02-11T09:46:10;96299.41;;;-1.38;52.80
56831;BME280;42713;42.676;23.352;2023-02-11T09:48:40;96293.59;;;-1.41;50.63
56831;BME280;42713;42.676;23.352;2023-02-11T09:51:19;96297.47;;;-1.46;51.01
56831;BME280;42713;42.676;23.352;2023-02-11T09:53:46;96293.75;;;-1.32;51.18
56831;BME280;42713;42.676;23.352;2023-02-11T09:56:15;96287.69;;;-1.31;50.86
56831;BME280;42713;42.676;23.352;2023-02-11T09:58:42;96288.06;;;-1.36;51.07
56831;BME280;42713;42.676;23.352;2023-02-11T10:01:30;96282.47;;;-1.41;50.39
56831;BME280;42713;42.676;23.352;2023-02-11T10:15:06;96252.69;;;-1.13;49.46
56831;BME280;42713;42.676;23.352;2023-02-11T10:22:58;96229.69;;;-1.14;47.94
56831;BME280;42713;42.676;23.352;2023-02-11T10:27:54;96220.50;;;-1.07;46.69
56831;BME280;42713;42.676;23.352;2023-02-11T10:30:40;96208.72;;;-1.00;46.91
56831;BME280;42713;42.676;23.352;2023-02-11T10:33:16;96210.66;;;-0.92;47.46
56831;BME280;42713;42.676;23.352;2023-02-11T10:35:44;96208.34;;;-0.85;48.27
56831;BME280;42713;42.676;23.352;2023-02-11T10:38:10;96189.13;;;-0.81;48.66
56831;BME280;42713;42.676;23.352;2023-02-11T10:40:36;96186.69;;;-0.83;47.57
56831;BME280;42713;42.676;23.352;2023-02-11T10:43:04;96176.69;;;-0.76;48.18
56831;BME280;42713;42.676;23.352;2023-02-11T10:46:03;96168.53;;;-0.61;47.82
56831;BME280;42713;42.676;23.352;2023-02-11T10:53:37;96156.81;;;-0.17;47.01
56831;BME280;42713;42.676;23.352;2023-02-11T10:56:03;96149.09;;;-0.17;45.72
56831;BME280;42713;42.676;23.352;2023-02-11T10:58:44;96145.00;;;-0.09;45.28
56831;BME280;42713;42.676;23.352;2023-02-11T11:01:10;96146.38;;;-0.05;44.27
56831;BME280;42713;42.676;23.352;2023-02-11T11:03:55;96138.63;;;-0.05;44.29
56831;BME280;42713;42.676;23.352;2023-02-11T11:06:31;96126.72;;;-0.06;44.24
56831;BME280;42713;42.676;23.352;2023-02-11T11:08:57;96145.31;;;-0.12;44.57
56831;BME280;42713;42.676;23.352;2023-02-11T11:11:24;96132.63;;;0.04;44.07
56831;BME280;42713;42.676;23.352;2023-02-11T11:13:58;96134.78;;;0.19;44.57
56831;BME280;42713;42.676;23.352;2023-02-11T11:16:29;96126.03;;;0.29;45.34
56831;BME280;42713;42.676;23.352;2023-02-11T11:21:48;96133.91;;;0.28;43.22
56831;BME280;42713;42.676;23.352;2023-02-11T11:26:46;96118.03;;;0.33;44.16
56831;BME280;42713;42.676;23.352;2023-02-11T11:29:35;96122.44;;;0.40;43.94
56831;BME280;42713;42.676;23.352;2023-02-11T11:34:42;96110.19;;;0.70;43.58
56831;BME280;42713;42.676;23.352;2023-02-11T11:37:19;96114.88;;;0.85;43.26
56831;BME280;42713;42.676;23.352;2023-02-11T11:42:27;96118.13;;;0.87;42.25
56831;BME280;42713;42.676;23.352;2023-02-11T11:45:02;96100.50;;;0.82;41.90
56831;BME280;42713;42.676;23.352;2023-02-11T11:47:39;96087.72;;;0.81;41.39
56831;BME280;42713;42.676;23.352;2023-02-11T11:53:11;96093.25;;;1.04;41.66
56831;BME280;42713;42.676;23.352;2023-02-11T11:55:44;96090.59;;;1.14;41.94
56831;BME280;42713;42.676;23.352;2023-02-11T11:58:19;96084.97;;;1.36;40.74
56831;BME280;42713;42.676;23.352;2023-02-11T12:14:11;96048.22;;;1.69;41.75
56831;BME280;42713;42.676;23.352;2023-02-11T12:17:31;96050.84;;;1.77;41.62
56831;BME280;42713;42.676;23.352;2023-02-11T12:22:29;96045.13;;;2.00;40.67
56831;BME280;42713;42.676;23.352;2023-02-11T12:38:32;96014.44;;;1.97;36.48
56831;BME280;42713;42.676;23.352;2023-02-11T12:43:39;96008.50;;;2.05;37.25
56831;BME280;42713;42.676;23.352;2023-02-11T12:54:45;95995.69;;;2.54;36.80
56831;BME280;42713;42.676;23.352;2023-02-11T12:57:25;95996.97;;;2.67;37.09
56831;BME280;42713;42.676;23.352;2023-02-11T13:00:18;96003.44;;;2.71;36.60
56831;BME280;42713;42.676;23.352;2023-02-11T13:05:52;95995.69;;;2.87;37.31
56831;BME280;42713;42.676;23.352;2023-02-11T13:09:19;95988.41;;;3.07;37.79
56831;BME280;42713;42.676;23.352;2023-02-11T13:11:16;95982.53;;;3.30;37.03
56831;BME280;42713;42.676;23.352;2023-02-11T13:13:54;95978.81;;;3.41;35.74
56831;BME280;42713;42.676;23.352;2023-02-11T13:16:40;95981.22;;;3.34;36.04
56831;BME280;42713;42.676;23.352;2023-02-11T13:19:25;95984.28;;;3.46;36.81
56831;BME280;42713;42.676;23.352;2023-02-11T13:24:33;95961.25;;;3.60;35.28
56831;BME280;42713;42.676;23.352;2023-02-11T13:35:34;95966.78;;;3.96;34.52
56831;BME280;42713;42.676;23.352;2023-02-11T13:38:04;95970.03;;;3.90;34.40
56831;BME280;42713;42.676;23.352;2023-02-11T13:40:37;95976.25;;;3.72;34.49
56831;BME280;42713;42.676;23.352;2023-02-11T13:43:06;95969.69;;;3.62;34.84
56831;BME280;42713;42.676;23.352;2023-02-11T13:45:44;95959.75;;;3.73;34.94
56831;BME280;42713;42.676;23.352;2023-02-11T13:50:47;95951.47;;;4.10;33.28
56831;BME280;42713;42.676;23.352;2023-02-11T13:53:13;95948.53;;;4.13;32.85
56831;BME280;42713;42.676;23.352;2023-02-11T13:55:44;95952.59;;;4.39;31.53
56831;BME280;42713;42.676;23.352;2023-02-11T14:11:53;95921.13;;;4.80;30.50
56831;BME280;42713;42.676;23.352;2023-02-11T14:14:58;95920.00;;;4.59;30.44
56831;BME280;42713;42.676;23.352;2023-02-11T14:17:29;95921.63;;;4.60;30.94
56831;BME280;42713;42.676;23.352;2023-02-11T14:19:56;95944.00;;;4.61;31.06
56831;BME280;42713;42.676;23.352;2023-02-11T14:22:23;95923.72;;;4.18;31.98
56831;BME280;42713;42.676;23.352;2023-02-11T14:38:25;95913.94;;;4.67;32.57
56831;BME280;42713;42.676;23.352;2023-02-11T14:43:26;95924.06;;;4.39;33.02
56831;BME280;42713;42.676;23.352;2023-02-11T14:45:55;95909.47;;;4.38;33.81
56831;BME280;42713;42.676;23.352;2023-02-11T14:48:33;95916.63;;;4.59;33.40
56831;BME280;42713;42.676;23.352;2023-02-11T14:51:12;95921.28;;;5.02;32.98
56831;BME280;42713;42.676;23.352;2023-02-11T14:53:46;95916.28;;;4.77;33.56
56831;BME280;42713;42.676;23.352;2023-02-11T14:56:24;95924.34;;;4.67;33.38
56831;BME280;42713;42.676;23.352;2023-02-11T14:58:52;95916.50;;;4.52;33.79
56831;BME280;42713;42.676;23.352;2023-02-11T15:01:43;95921.25;;;4.48;33.55
56831;BME280;42713;42.676;23.352;2023-02-11T15:04:28;95920.06;;;4.51;33.87
56831;BME280;42713;42.676;23.352;2023-02-11T15:06:56;95908.50;;;4.39;34.08
56831;BME280;42713;42.676;23.352;2023-02-11T15:09:37;95904.28;;;4.38;34.61
56831;BME280;42713;42.676;23.352;2023-02-11T15:12:04;95903.19;;;4.32;34.27
56831;BME280;42713;42.676;23.352;2023-02-11T15:14:39;95907.16;;;4.43;34.43
56831;BME280;42713;42.676;23.352;2023-02-11T15:17:06;95898.53;;;4.50;33.79
56831;BME280;42713;42.676;23.352;2023-02-11T15:19:38;95899.19;;;4.67;34.27
56831;BME280;42713;42.676;23.352;2023-02-11T15:22:31;95888.53;;;4.62;34.01
56831;BME280;42713;42.676;23.352;2023-02-11T15:27:22;95882.94;;;4.89;34.55
56831;BME280;42713;42.676;23.352;2023-02-11T15:29:50;95887.47;;;4.72;34.36
56831;BME280;42713;42.676;23.352;2023-02-11T15:32:24;95890.91;;;4.49;34.18
56831;BME280;42713;42.676;23.352;2023-02-11T15:34:52;95888.19;;;4.19;34.86
56831;BME280;42713;42.676;23.352;2023-02-11T15:37:21;95880.66;;;4.09;35.37
56831;BME280;42713;42.676;23.352;2023-02-11T15:39:48;95895.94;;;3.72;35.65
56831;BME280;42713;42.676;23.352;2023-02-11T15:42:29;95892.69;;;3.39;36.73
56831;BME280;42713;42.676;23.352;2023-02-11T15:47:40;95895.38;;;2.98;37.26
56831;BME280;42713;42.676;23.352;2023-02-11T15:50:15;95887.34;;;2.76;37.38